sensor_id;sensor_type;location;lat;lon;timestamp;P1;durP1;ratioP1;P2;durP2;ratioP2
30408;SDS011;17207;52.960;5.916;2023-02-28T00:02:18;1.88;;;0.98;;
30408;SDS011;17207;52.960;5.916;2023-02-28T00:04:44;1.23;;;1.10;;
30408;SDS011;17207;52.960;5.916;2023-02-28T00:07:17;2.35;;;1.15;;
30408;SDS011;17207;52.960;5.916;2023-02-28T00:09:43;3.55;;;1.20;;
30408;SDS011;17207;52.960;5.916;2023-02-28T00:12:10;2.42;;;0.85;;
30408;SDS011;17207;52.960;5.916;2023-02-28T00:14:36;2.03;;;1.33;;
30408;SDS011;17207;52.960;5.916;2023-02-28T00:17:02;1.58;;;0.90;;
30408;SDS011;17207;52.960;5.916;2023-02-28T00:19:28;1.15;;;1.00;;
30408;SDS011;17207;52.960;5.916;2023-02-28T00:21:54;1.67;;;1.00;;
30408;SDS011;17207;52.960;5.916;2023-02-28T00:24:20;1.15;;;0.73;;
30408;SDS011;17207;52.960;5.916;2023-02-28T00:26:46;4.40;;;1.30;;
30408;SDS011;17207;52.960;5.916;2023-02-28T00:29:12;1.00;;;0.82;;
30408;SDS011;17207;52.960;5.916;2023-02-28T00:31:38;4.15;;;1.10;;
30408;SDS011;17207;52.960;5.916;2023-02-28T00:34:04;0.80;;;0.80;;
30408;SDS011;17207;52.960;5.916;2023-02-28T00:36:30;3.55;;;1.30;;
30408;SDS011;17207;52.960;5.916;2023-02-28T00:38:56;2.00;;;1.00;;
30408;SDS011;17207;52.960;5.916;2023-02-28T00:41:22;1.20;;;0.98;;
30408;SDS011;17207;52.960;5.916;2023-02-28T00:43:48;1.67;;;1.00;;
30408;SDS011;17207;52.960;5.916;2023-02-28T00:46:14;1.48;;;0.90;;
30408;SDS011;17207;52.960;5.916;2023-02-28T00:48:40;1.40;;;0.75;;
30408;SDS011;17207;52.960;5.916;2023-02-28T00:51:06;2.50;;;1.20;;
30408;SDS011;17207;52.960;5.916;2023-02-28T00:53:32;0.93;;;0.82;;
30408;SDS011;17207;52.960;5.916;2023-02-28T00:55:59;1.33;;;0.90;;
30408;SDS011;17207;52.960;5.916;2023-02-28T00:58:25;0.85;;;0.85;;
30408;SDS011;17207;52.960;5.916;2023-02-28T01:00:52;2.53;;;1.20;;
30408;SDS011;17207;52.960;5.916;2023-02-28T01:03:19;2.22;;;0.93;;
30408;SDS011;17207;52.960;5.916;2023-02-28T01:05:45;1.35;;;0.80;;
30408;SDS011;17207;52.960;5.916;2023-02-28T01:08:12;2.08;;;1.00;;
30408;SDS011;17207;52.960;5.916;2023-02-28T01:10:39;5.47;;;1.10;;
30408;SDS011;17207;52.960;5.916;2023-02-28T01:13:05;0.90;;;0.80;;
30408;SDS011;17207;52.960;5.916;2023-02-28T01:15:31;2.42;;;0.90;;
30408;SDS011;17207;52.960;5.916;2023-02-28T01:17:58;1.30;;;1.08;;
30408;SDS011;17207;52.960;5.916;2023-02-28T01:20:24;4.35;;;1.20;;
30408;SDS011;17207;52.960;5.916;2023-02-28T01:22:50;2.28;;;0.93;;
30408;SDS011;17207;52.960;5.916;2023-02-28T01:25:16;1.88;;;1.10;;
30408;SDS011;17207;52.960;5.916;2023-02-28T01:27:42;2.28;;;1.10;;
30408;SDS011;17207;52.960;5.916;2023-02-28T01:30:08;2.42;;;1.05;;
30408;SDS011;17207;52.960;5.916;2023-02-28T01:32:35;1.33;;;0.85;;
30408;SDS011;17207;52.960;5.916;2023-02-28T01:35:01;4.00;;;1.10;;
30408;SDS011;17207;52.960;5.916;2023-02-28T01:37:27;3.00;;;0.90;;
30408;SDS011;17207;52.960;5.916;2023-02-28T01:39:53;2.38;;;0.90;;
30408;SDS011;17207;52.960;5.916;2023-02-28T01:42:19;1.35;;;0.90;;
30408;SDS011;17207;52.960;5.916;2023-02-28T01:47:20;1.60;;;0.95;;
30408;SDS011;17207;52.960;5.916;2023-02-28T01:49:47;1.15;;;0.80;;
30408;SDS011;17207;52.960;5.916;2023-02-28T01:52:13;4.43;;;1.25;;
30408;SDS011;17207;52.960;5.916;2023-02-28T01:54:43;1.15;;;1.00;;
30408;SDS011;17207;52.960;5.916;2023-02-28T01:57:13;1.17;;;0.85;;
30408;SDS011;17207;52.960;5.916;2023-02-28T02:00:02;3.58;;;1.08;;
30408;SDS011;17207;52.960;5.916;2023-02-28T02:02:29;1.00;;;0.90;;
30408;SDS011;17207;52.960;5.916;2023-02-28T02:05:38;1.60;;;1.05;;
30408;SDS011;17207;52.960;5.916;2023-02-28T02:07:45;1.08;;;0.90;;
30408;SDS011;17207;52.960;5.916;2023-02-28T02:10:19;1.33;;;0.90;;
30408;SDS011;17207;52.960;5.916;2023-02-28T02:15:14;1.65;;;1.20;;
30408;SDS011;17207;52.960;5.916;2023-02-28T02:17:43;1.00;;;0.90;;
30408;SDS011;17207;52.960;5.916;2023-02-28T02:25:36;4.43;;;1.15;;
30408;SDS011;17207;52.960;5.916;2023-02-28T02:30:48;1.13;;;0.82;;
30408;SDS011;17207;52.960;5.916;2023-02-28T02:36:00;0.90;;;0.80;;
30408;SDS011;17207;52.960;5.916;2023-02-28T02:38:38;2.15;;;1.05;;
30408;SDS011;17207;52.960;5.916;2023-02-28T02:43:45;0.70;;;0.70;;
30408;SDS011;17207;52.960;5.916;2023-02-28T02:46:32;2.50;;;1.17;;
30408;SDS011;17207;52.960;5.916;2023-02-28T02:49:00;0.83;;;0.73;;
30408;SDS011;17207;52.960;5.916;2023-02-28T02:51:26;1.63;;;0.90;;
30408;SDS011;17207;52.960;5.916;2023-02-28T02:54:03;2.58;;;1.00;;
30408;SDS011;17207;52.960;5.916;2023-02-28T02:56:32;1.05;;;0.90;;
30408;SDS011;17207;52.960;5.916;2023-02-28T02:59:00;2.00;;;1.02;;
30408;SDS011;17207;52.960;5.916;2023-02-28T03:01:27;1.17;;;0.70;;
30408;SDS011;17207;52.960;5.916;2023-02-28T03:03:58;0.73;;;0.70;;
30408;SDS011;17207;52.960;5.916;2023-02-28T03:06:25;3.22;;;1.00;;
30408;SDS011;17207;52.960;5.916;2023-02-28T03:08:51;1.80;;;0.75;;
30408;SDS011;17207;52.960;5.916;2023-02-28T03:11:17;1.50;;;0.93;;
30408;SDS011;17207;52.960;5.916;2023-02-28T03:16:34;1.63;;;1.02;;
30408;SDS011;17207;52.960;5.916;2023-02-28T03:21:38;1.35;;;0.75;;
30408;SDS011;17207;52.960;5.916;2023-02-28T03:24:08;2.85;;;1.00;;
30408;SDS011;17207;52.960;5.916;2023-02-28T03:26:38;1.67;;;1.02;;
30408;SDS011;17207;52.960;5.916;2023-02-28T03:29:07;2.92;;;0.80;;
30408;SDS011;17207;52.960;5.916;2023-02-28T03:31:41;1.63;;;0.90;;
30408;SDS011;17207;52.960;5.916;2023-02-28T03:34:10;2.05;;;0.82;;
30408;SDS011;17207;52.960;5.916;2023-02-28T03:36:39;1.33;;;0.93;;
30408;SDS011;17207;52.960;5.916;2023-02-28T03:39:10;0.80;;;0.80;;
30408;SDS011;17207;52.960;5.916;2023-02-28T03:41:42;1.10;;;1.00;;
30408;SDS011;17207;52.960;5.916;2023-02-28T03:44:13;1.20;;;0.77;;
30408;SDS011;17207;52.960;5.916;2023-02-28T03:46:40;1.90;;;0.75;;
30408;SDS011;17207;52.960;5.916;2023-02-28T03:51:40;2.67;;;1.10;;
30408;SDS011;17207;52.960;5.916;2023-02-28T03:54:09;1.02;;;0.80;;
30408;SDS011;17207;52.960;5.916;2023-02-28T03:56:59;0.80;;;0.80;;
30408;SDS011;17207;52.960;5.916;2023-02-28T04:01:53;1.10;;;0.70;;
30408;SDS011;17207;52.960;5.916;2023-02-28T04:04:20;3.13;;;0.98;;
30408;SDS011;17207;52.960;5.916;2023-02-28T04:06:47;0.65;;;0.60;;
30408;SDS011;17207;52.960;5.916;2023-02-28T04:09:14;1.75;;;1.23;;
30408;SDS011;17207;52.960;5.916;2023-02-28T04:11:44;1.65;;;1.00;;
30408;SDS011;17207;52.960;5.916;2023-02-28T04:14:11;0.98;;;0.77;;
30408;SDS011;17207;52.960;5.916;2023-02-28T04:16:38;1.95;;;0.90;;
30408;SDS011;17207;52.960;5.916;2023-02-28T04:19:05;2.15;;;1.02;;
30408;SDS011;17207;52.960;5.916;2023-02-28T04:21:33;1.52;;;1.00;;
30408;SDS011;17207;52.960;5.916;2023-02-28T04:23:59;3.25;;;1.00;;
30408;SDS011;17207;52.960;5.916;2023-02-28T04:26:32;1.60;;;0.82;;
30408;SDS011;17207;52.960;5.916;2023-02-28T04:28:58;1.42;;;0.93;;
30408;SDS011;17207;52.960;5.916;2023-02-28T04:31:25;1.30;;;0.77;;
30408;SDS011;17207;52.960;5.916;2023-02-28T04:33:51;0.77;;;0.77;;
30408;SDS011;17207;52.960;5.916;2023-02-28T04:36:17;1.45;;;0.80;;
30408;SDS011;17207;52.960;5.916;2023-02-28T04:38:43;1.20;;;1.00;;
30408;SDS011;17207;52.960;5.916;2023-02-28T04:41:10;1.35;;;0.85;;
30408;SDS011;17207;52.960;5.916;2023-02-28T04:43:36;1.13;;;0.80;;
30408;SDS011;17207;52.960;5.916;2023-02-28T04:46:03;1.20;;;0.80;;
30408;SDS011;17207;52.960;5.916;2023-02-28T04:48:30;2.13;;;1.20;;
30408;SDS011;17207;52.960;5.916;2023-02-28T04:51:00;1.33;;;1.23;;
30408;SDS011;17207;52.960;5.916;2023-02-28T04:53:27;0.82;;;0.70;;
30408;SDS011;17207;52.960;5.916;2023-02-28T04:55:54;1.25;;;1.10;;
30408;SDS011;17207;52.960;5.916;2023-02-28T04:58:20;0.70;;;0.70;;
30408;SDS011;17207;52.960;5.916;2023-02-28T05:00:48;0.95;;;0.80;;
30408;SDS011;17207;52.960;5.916;2023-02-28T05:03:14;1.95;;;0.90;;
30408;SDS011;17207;52.960;5.916;2023-02-28T05:05:40;1.88;;;1.00;;
30408;SDS011;17207;52.960;5.916;2023-02-28T05:08:06;1.23;;;0.88;;
30408;SDS011;17207;52.960;5.916;2023-02-28T05:10:32;2.38;;;0.90;;
30408;SDS011;17207;52.960;5.916;2023-02-28T05:12:58;1.00;;;0.73;;
30408;SDS011;17207;52.960;5.916;2023-02-28T05:15:24;1.30;;;1.00;;
30408;SDS011;17207;52.960;5.916;2023-02-28T05:17:50;1.00;;;0.60;;
30408;SDS011;17207;52.960;5.916;2023-02-28T05:20:16;1.42;;;0.88;;
30408;SDS011;17207;52.960;5.916;2023-02-28T05:22:42;1.20;;;0.70;;
30408;SDS011;17207;52.960;5.916;2023-02-28T05:25:13;1.10;;;0.80;;
30408;SDS011;17207;52.960;5.916;2023-02-28T05:27:41;0.98;;;0.82;;
30408;SDS011;17207;52.960;5.916;2023-02-28T05:30:07;1.92;;;0.95;;
30408;SDS011;17207;52.960;5.916;2023-02-28T05:32:36;0.98;;;0.88;;
30408;SDS011;17207;52.960;5.916;2023-02-28T05:35:02;0.80;;;0.80;;
30408;SDS011;17207;52.960;5.916;2023-02-28T05:37:28;1.50;;;1.02;;
30408;SDS011;17207;52.960;5.916;2023-02-28T05:39:54;1.30;;;1.00;;
30408;SDS011;17207;52.960;5.916;2023-02-28T05:42:20;2.13;;;1.35;;
30408;SDS011;17207;52.960;5.916;2023-02-28T05:44:46;1.60;;;0.90;;
30408;SDS011;17207;52.960;5.916;2023-02-28T05:47:12;1.80;;;1.00;;
30408;SDS011;17207;52.960;5.916;2023-02-28T05:49:40;1.15;;;1.00;;
30408;SDS011;17207;52.960;5.916;2023-02-28T05:52:06;1.33;;;0.80;;
30408;SDS011;17207;52.960;5.916;2023-02-28T05:54:32;1.30;;;0.80;;
30408;SDS011;17207;52.960;5.916;2023-02-28T05:56:58;1.38;;;0.82;;
30408;SDS011;17207;52.960;5.916;2023-02-28T05:59:24;0.85;;;0.73;;
30408;SDS011;17207;52.960;5.916;2023-02-28T06:01:50;1.23;;;0.93;;
30408;SDS011;17207;52.960;5.916;2023-02-28T06:04:19;0.63;;;0.63;;
30408;SDS011;17207;52.960;5.916;2023-02-28T06:06:49;0.93;;;0.85;;
30408;SDS011;17207;52.960;5.916;2023-02-28T06:09:15;1.45;;;0.80;;
30408;SDS011;17207;52.960;5.916;2023-02-28T06:11:41;1.00;;;0.90;;
30408;SDS011;17207;52.960;5.916;2023-02-28T06:14:09;1.10;;;0.90;;
30408;SDS011;17207;52.960;5.916;2023-02-28T06:16:39;2.00;;;1.00;;
30408;SDS011;17207;52.960;5.916;2023-02-28T06:19:06;3.60;;;1.02;;
30408;SDS011;17207;52.960;5.916;2023-02-28T06:21:32;1.58;;;0.73;;
30408;SDS011;17207;52.960;5.916;2023-02-28T06:23:58;3.42;;;1.20;;
30408;SDS011;17207;52.960;5.916;2023-02-28T06:26:24;1.00;;;0.80;;
30408;SDS011;17207;52.960;5.916;2023-02-28T06:28:50;1.42;;;1.00;;
30408;SDS011;17207;52.960;5.916;2023-02-28T06:31:17;1.23;;;0.80;;
30408;SDS011;17207;52.960;5.916;2023-02-28T06:33:44;1.35;;;1.15;;
30408;SDS011;17207;52.960;5.916;2023-02-28T06:36:10;2.47;;;1.25;;
30408;SDS011;17207;52.960;5.916;2023-02-28T06:38:37;1.00;;;0.80;;
30408;SDS011;17207;52.960;5.916;2023-02-28T06:41:04;2.22;;;0.85;;
30408;SDS011;17207;52.960;5.916;2023-02-28T06:43:32;0.88;;;0.68;;
30408;SDS011;17207;52.960;5.916;2023-02-28T06:46:00;1.70;;;0.95;;
30408;SDS011;17207;52.960;5.916;2023-02-28T06:48:27;1.60;;;0.90;;
30408;SDS011;17207;52.960;5.916;2023-02-28T06:51:01;1.80;;;0.80;;
30408;SDS011;17207;52.960;5.916;2023-02-28T06:53:27;1.67;;;0.82;;
30408;SDS011;17207;52.960;5.916;2023-02-28T06:55:53;2.20;;;0.90;;
30408;SDS011;17207;52.960;5.916;2023-02-28T06:58:19;0.95;;;0.80;;
30408;SDS011;17207;52.960;5.916;2023-02-28T07:00:45;1.27;;;0.80;;
30408;SDS011;17207;52.960;5.916;2023-02-28T07:03:12;0.73;;;0.70;;
30408;SDS011;17207;52.960;5.916;2023-02-28T07:05:40;1.88;;;1.40;;
30408;SDS011;17207;52.960;5.916;2023-02-28T07:08:06;2.78;;;1.00;;
30408;SDS011;17207;52.960;5.916;2023-02-28T07:10:33;4.05;;;1.20;;
30408;SDS011;17207;52.960;5.916;2023-02-28T07:12:59;1.15;;;1.00;;
30408;SDS011;17207;52.960;5.916;2023-02-28T07:15:25;1.45;;;1.05;;
30408;SDS011;17207;52.960;5.916;2023-02-28T07:17:51;4.07;;;1.10;;
30408;SDS011;17207;52.960;5.916;2023-02-28T07:20:18;1.20;;;1.05;;
30408;SDS011;17207;52.960;5.916;2023-02-28T07:22:44;2.08;;;1.02;;
30408;SDS011;17207;52.960;5.916;2023-02-28T07:25:10;3.15;;;1.60;;
30408;SDS011;17207;52.960;5.916;2023-02-28T07:27:36;5.40;;;2.10;;
30408;SDS011;17207;52.960;5.916;2023-02-28T07:30:02;8.77;;;1.95;;
30408;SDS011;17207;52.960;5.916;2023-02-28T07:32:28;4.80;;;1.55;;
30408;SDS011;17207;52.960;5.916;2023-02-28T07:34:54;3.00;;;1.45;;
30408;SDS011;17207;52.960;5.916;2023-02-28T07:37:20;2.60;;;1.48;;
30408;SDS011;17207;52.960;5.916;2023-02-28T07:39:46;1.67;;;0.93;;
30408;SDS011;17207;52.960;5.916;2023-02-28T07:42:12;5.45;;;0.90;;
30408;SDS011;17207;52.960;5.916;2023-02-28T07:44:39;1.55;;;1.00;;
30408;SDS011;17207;52.960;5.916;2023-02-28T07:47:09;2.92;;;1.05;;
30408;SDS011;17207;52.960;5.916;2023-02-28T07:49:38;1.48;;;0.75;;
30408;SDS011;17207;52.960;5.916;2023-02-28T07:52:05;1.58;;;0.88;;
30408;SDS011;17207;52.960;5.916;2023-02-28T07:54:32;1.00;;;0.90;;
30408;SDS011;17207;52.960;5.916;2023-02-28T07:56:58;1.92;;;1.08;;
30408;SDS011;17207;52.960;5.916;2023-02-28T07:59:24;3.03;;;1.52;;
30408;SDS011;17207;52.960;5.916;2023-02-28T08:01:50;2.58;;;1.20;;
30408;SDS011;17207;52.960;5.916;2023-02-28T08:04:17;4.38;;;1.73;;
30408;SDS011;17207;52.960;5.916;2023-02-28T08:06:43;8.05;;;2.58;;
30408;SDS011;17207;52.960;5.916;2023-02-28T08:09:09;3.72;;;1.67;;
30408;SDS011;17207;52.960;5.916;2023-02-28T08:11:36;6.00;;;2.40;;
30408;SDS011;17207;52.960;5.916;2023-02-28T08:14:02;5.43;;;2.58;;
30408;SDS011;17207;52.960;5.916;2023-02-28T08:16:28;3.97;;;1.80;;
30408;SDS011;17207;52.960;5.916;2023-02-28T08:18:54;9.27;;;3.42;;
30408;SDS011;17207;52.960;5.916;2023-02-28T08:21:20;10.10;;;3.40;;
30408;SDS011;17207;52.960;5.916;2023-02-28T08:23:47;4.55;;;2.03;;
30408;SDS011;17207;52.960;5.916;2023-02-28T08:26:13;5.82;;;2.17;;
30408;SDS011;17207;52.960;5.916;2023-02-28T08:28:39;6.32;;;2.50;;
30408;SDS011;17207;52.960;5.916;2023-02-28T08:31:09;12.52;;;2.33;;
30408;SDS011;17207;52.960;5.916;2023-02-28T08:33:35;8.98;;;2.63;;
30408;SDS011;17207;52.960;5.916;2023-02-28T08:36:01;5.32;;;2.63;;
30408;SDS011;17207;52.960;5.916;2023-02-28T08:38:27;3.67;;;2.35;;
30408;SDS011;17207;52.960;5.916;2023-02-28T08:40:57;6.25;;;2.78;;
30408;SDS011;17207;52.960;5.916;2023-02-28T08:43:23;4.30;;;2.58;;
30408;SDS011;17207;52.960;5.916;2023-02-28T08:45:53;8.70;;;2.83;;
30408;SDS011;17207;52.960;5.916;2023-02-28T08:48:21;5.55;;;2.30;;
30408;SDS011;17207;52.960;5.916;2023-02-28T08:51:01;7.38;;;3.88;;
30408;SDS011;17207;52.960;5.916;2023-02-28T08:53:27;5.55;;;2.33;;
30408;SDS011;17207;52.960;5.916;2023-02-28T08:55:59;7.13;;;2.55;;
30408;SDS011;17207;52.960;5.916;2023-02-28T08:58:26;2.97;;;1.85;;
30408;SDS011;17207;52.960;5.916;2023-02-28T09:00:52;4.97;;;2.20;;
30408;SDS011;17207;52.960;5.916;2023-02-28T09:03:19;5.57;;;1.90;;
30408;SDS011;17207;52.960;5.916;2023-02-28T09:05:52;4.80;;;2.13;;
30408;SDS011;17207;52.960;5.916;2023-02-28T09:08:18;4.50;;;2.40;;
30408;SDS011;17207;52.960;5.916;2023-02-28T09:10:44;4.32;;;2.05;;
30408;SDS011;17207;52.960;5.916;2023-02-28T09:13:10;8.02;;;2.40;;
30408;SDS011;17207;52.960;5.916;2023-02-28T09:15:37;5.15;;;2.00;;
30408;SDS011;17207;52.960;5.916;2023-02-28T09:18:03;4.15;;;2.40;;
30408;SDS011;17207;52.960;5.916;2023-02-28T09:20:29;4.85;;;2.47;;
30408;SDS011;17207;52.960;5.916;2023-02-28T09:22:55;6.45;;;2.08;;
30408;SDS011;17207;52.960;5.916;2023-02-28T09:25:21;3.22;;;2.08;;
30408;SDS011;17207;52.960;5.916;2023-02-28T09:27:47;3.85;;;2.13;;
30408;SDS011;17207;52.960;5.916;2023-02-28T09:30:14;4.45;;;1.77;;
30408;SDS011;17207;52.960;5.916;2023-02-28T09:32:41;4.15;;;2.65;;
30408;SDS011;17207;52.960;5.916;2023-02-28T09:35:07;3.45;;;2.08;;
30408;SDS011;17207;52.960;5.916;2023-02-28T09:37:38;2.70;;;1.65;;
30408;SDS011;17207;52.960;5.916;2023-02-28T09:40:04;2.80;;;1.58;;
30408;SDS011;17207;52.960;5.916;2023-02-28T09:42:31;3.17;;;1.83;;
30408;SDS011;17207;52.960;5.916;2023-02-28T09:44:58;3.80;;;1.70;;
30408;SDS011;17207;52.960;5.916;2023-02-28T09:47:39;3.42;;;1.60;;
30408;SDS011;17207;52.960;5.916;2023-02-28T09:52:48;6.90;;;1.70;;
30408;SDS011;17207;52.960;5.916;2023-02-28T09:58:02;2.15;;;1.50;;
30408;SDS011;17207;52.960;5.916;2023-02-28T10:00:39;8.60;;;1.75;;
30408;SDS011;17207;52.960;5.916;2023-02-28T10:12:59;1.58;;;1.30;;
30408;SDS011;17207;52.960;5.916;2023-02-28T10:15:27;4.97;;;1.80;;
30408;SDS011;17207;52.960;5.916;2023-02-28T10:17:57;3.70;;;1.70;;
30408;SDS011;17207;52.960;5.916;2023-02-28T10:20:24;4.82;;;1.85;;
30408;SDS011;17207;52.960;5.916;2023-02-28T10:25:33;2.85;;;1.52;;
30408;SDS011;17207;52.960;5.916;2023-02-28T10:28:01;3.22;;;1.50;;
30408;SDS011;17207;52.960;5.916;2023-02-28T10:30:27;1.83;;;1.35;;
30408;SDS011;17207;52.960;5.916;2023-02-28T10:32:53;6.53;;;1.80;;
30408;SDS011;17207;52.960;5.916;2023-02-28T10:35:21;3.00;;;1.60;;
30408;SDS011;17207;52.960;5.916;2023-02-28T10:37:53;6.80;;;2.17;;
30408;SDS011;17207;52.960;5.916;2023-02-28T10:43:01;3.60;;;1.63;;
30408;SDS011;17207;52.960;5.916;2023-02-28T10:45:28;6.57;;;1.88;;
30408;SDS011;17207;52.960;5.916;2023-02-28T10:48:04;4.60;;;1.65;;
30408;SDS011;17207;52.960;5.916;2023-02-28T10:53:05;7.78;;;1.70;;
30408;SDS011;17207;52.960;5.916;2023-02-28T10:55:33;3.17;;;1.90;;
30408;SDS011;17207;52.960;5.916;2023-02-28T10:57:59;2.50;;;1.50;;
30408;SDS011;17207;52.960;5.916;2023-02-28T11:00:25;6.38;;;1.92;;
30408;SDS011;17207;52.960;5.916;2023-02-28T11:02:51;2.42;;;1.40;;
30408;SDS011;17207;52.960;5.916;2023-02-28T11:07:57;2.05;;;1.20;;
30408;SDS011;17207;52.960;5.916;2023-02-28T11:10:26;5.25;;;1.80;;
30408;SDS011;17207;52.960;5.916;2023-02-28T11:12:55;4.43;;;1.23;;
30408;SDS011;17207;52.960;5.916;2023-02-28T11:15:29;5.28;;;1.58;;
30408;SDS011;17207;52.960;5.916;2023-02-28T11:20:29;2.30;;;1.40;;
30408;SDS011;17207;52.960;5.916;2023-02-28T11:22:57;7.90;;;1.58;;
30408;SDS011;17207;52.960;5.916;2023-02-28T11:25:33;3.47;;;1.55;;
30408;SDS011;17207;52.960;5.916;2023-02-28T11:28:01;1.88;;;1.20;;
30408;SDS011;17207;52.960;5.916;2023-02-28T11:32:55;2.55;;;1.50;;
30408;SDS011;17207;52.960;5.916;2023-02-28T11:35:39;2.55;;;1.17;;
30408;SDS011;17207;52.960;5.916;2023-02-28T11:38:09;6.70;;;1.48;;
30408;SDS011;17207;52.960;5.916;2023-02-28T11:41:27;1.88;;;1.40;;
30408;SDS011;17207;52.960;5.916;2023-02-28T11:43:37;3.08;;;1.30;;
30408;SDS011;17207;52.960;5.916;2023-02-28T11:51:41;5.30;;;1.75;;
30408;SDS011;17207;52.960;5.916;2023-02-28T11:57:00;2.50;;;1.45;;
30408;SDS011;17207;52.960;5.916;2023-02-28T11:59:38;6.63;;;1.20;;
30408;SDS011;17207;52.960;5.916;2023-02-28T12:12:51;7.68;;;1.70;;
30408;SDS011;17207;52.960;5.916;2023-02-28T12:20:49;11.57;;;1.80;;
30408;SDS011;17207;52.960;5.916;2023-02-28T12:28:20;6.75;;;1.55;;
30408;SDS011;17207;52.960;5.916;2023-02-28T12:30:56;6.50;;;1.90;;
30408;SDS011;17207;52.960;5.916;2023-02-28T12:33:24;6.72;;;1.58;;
30408;SDS011;17207;52.960;5.916;2023-02-28T12:38:36;18.90;;;1.88;;
30408;SDS011;17207;52.960;5.916;2023-02-28T12:41:13;6.47;;;1.35;;
30408;SDS011;17207;52.960;5.916;2023-02-28T12:43:44;13.10;;;1.30;;
30408;SDS011;17207;52.960;5.916;2023-02-28T12:46:21;8.20;;;1.77;;
30408;SDS011;17207;52.960;5.916;2023-02-28T12:48:58;8.80;;;1.70;;
30408;SDS011;17207;52.960;5.916;2023-02-28T12:51:24;4.88;;;2.20;;
30408;SDS011;17207;52.960;5.916;2023-02-28T12:53:59;9.07;;;1.70;;
30408;SDS011;17207;52.960;5.916;2023-02-28T12:59:45;4.88;;;1.65;;
30408;SDS011;17207;52.960;5.916;2023-02-28T13:01:56;8.07;;;1.55;;
30408;SDS011;17207;52.960;5.916;2023-02-28T13:04:34;8.93;;;1.70;;
30408;SDS011;17207;52.960;5.916;2023-02-28T13:09:32;6.35;;;1.48;;
30408;SDS011;17207;52.960;5.916;2023-02-28T13:11:58;4.57;;;1.40;;
30408;SDS011;17207;52.960;5.916;2023-02-28T13:14:28;7.15;;;1.35;;
30408;SDS011;17207;52.960;5.916;2023-02-28T13:19:30;6.93;;;1.33;;
30408;SDS011;17207;52.960;5.916;2023-02-28T13:21:57;2.75;;;1.08;;
30408;SDS011;17207;52.960;5.916;2023-02-28T13:24:38;4.50;;;1.38;;
30408;SDS011;17207;52.960;5.916;2023-02-28T13:29:35;7.17;;;1.60;;
30408;SDS011;17207;52.960;5.916;2023-02-28T13:34:34;1.73;;;1.25;;
30408;SDS011;17207;52.960;5.916;2023-02-28T13:39:47;1.42;;;1.00;;
30408;SDS011;17207;52.960;5.916;2023-02-28T13:47:34;3.20;;;1.23;;
30408;SDS011;17207;52.960;5.916;2023-02-28T13:50:22;1.27;;;0.85;;
30408;SDS011;17207;52.960;5.916;2023-02-28T14:01:45;3.10;;;1.17;;
30408;SDS011;17207;52.960;5.916;2023-02-28T14:11:35;3.45;;;1.10;;
30408;SDS011;17207;52.960;5.916;2023-02-28T14:14:02;2.83;;;1.42;;
30408;SDS011;17207;52.960;5.916;2023-02-28T14:16:50;7.25;;;1.30;;
30408;SDS011;17207;52.960;5.916;2023-02-28T14:19:16;2.28;;;1.13;;
30408;SDS011;17207;52.960;5.916;2023-02-28T14:37:30;1.65;;;1.05;;
30408;SDS011;17207;52.960;5.916;2023-02-28T14:39:58;3.85;;;1.15;;
30408;SDS011;17207;52.960;5.916;2023-02-28T14:42:27;3.67;;;1.30;;
30408;SDS011;17207;52.960;5.916;2023-02-28T14:44:54;10.02;;;1.27;;
30408;SDS011;17207;52.960;5.916;2023-02-28T14:47:21;2.88;;;1.10;;
30408;SDS011;17207;52.960;5.916;2023-02-28T14:49:49;1.42;;;0.90;;
30408;SDS011;17207;52.960;5.916;2023-02-28T14:52:17;3.80;;;1.33;;
30408;SDS011;17207;52.960;5.916;2023-02-28T14:54:43;2.15;;;1.17;;
30408;SDS011;17207;52.960;5.916;2023-02-28T14:57:29;3.10;;;1.05;;
30408;SDS011;17207;52.960;5.916;2023-02-28T15:02:41;1.38;;;1.00;;
30408;SDS011;17207;52.960;5.916;2023-02-28T15:07:36;2.40;;;1.20;;
30408;SDS011;17207;52.960;5.916;2023-02-28T15:12:37;1.23;;;0.82;;
30408;SDS011;17207;52.960;5.916;2023-02-28T15:15:05;1.50;;;0.90;;
30408;SDS011;17207;52.960;5.916;2023-02-28T15:19:58;1.80;;;1.10;;
30408;SDS011;17207;52.960;5.916;2023-02-28T15:22:28;4.15;;;1.10;;
30408;SDS011;17207;52.960;5.916;2023-02-28T15:24:57;1.60;;;0.88;;
30408;SDS011;17207;52.960;5.916;2023-02-28T15:27:24;1.52;;;0.90;;
30408;SDS011;17207;52.960;5.916;2023-02-28T15:29:53;2.67;;;1.25;;
30408;SDS011;17207;52.960;5.916;2023-02-28T15:34:50;3.88;;;1.00;;
30408;SDS011;17207;52.960;5.916;2023-02-28T15:40:12;5.13;;;1.20;;
30408;SDS011;17207;52.960;5.916;2023-02-28T15:42:38;1.02;;;0.80;;
30408;SDS011;17207;52.960;5.916;2023-02-28T15:45:05;1.55;;;1.02;;
30408;SDS011;17207;52.960;5.916;2023-02-28T15:47:31;6.90;;;0.85;;
30408;SDS011;17207;52.960;5.916;2023-02-28T15:50:02;4.28;;;0.90;;
30408;SDS011;17207;52.960;5.916;2023-02-28T15:52:32;1.95;;;0.90;;
30408;SDS011;17207;52.960;5.916;2023-02-28T15:55:06;3.10;;;1.00;;
30408;SDS011;17207;52.960;5.916;2023-02-28T15:57:33;3.00;;;1.27;;
30408;SDS011;17207;52.960;5.916;2023-02-28T16:00:02;2.05;;;0.80;;
30408;SDS011;17207;52.960;5.916;2023-02-28T16:02:34;1.10;;;1.00;;
30408;SDS011;17207;52.960;5.916;2023-02-28T16:07:34;3.60;;;0.90;;
30408;SDS011;17207;52.960;5.916;2023-02-28T16:10:00;4.07;;;1.27;;
30408;SDS011;17207;52.960;5.916;2023-02-28T16:12:27;1.42;;;0.88;;
30408;SDS011;17207;52.960;5.916;2023-02-28T16:14:55;1.05;;;0.70;;
30408;SDS011;17207;52.960;5.916;2023-02-28T16:17:22;4.65;;;0.82;;
30408;SDS011;17207;52.960;5.916;2023-02-28T16:19:49;2.20;;;0.90;;
30408;SDS011;17207;52.960;5.916;2023-02-28T16:22:15;2.85;;;0.80;;
30408;SDS011;17207;52.960;5.916;2023-02-28T16:24:41;2.13;;;1.00;;
30408;SDS011;17207;52.960;5.916;2023-02-28T16:27:11;1.30;;;0.80;;
30408;SDS011;17207;52.960;5.916;2023-02-28T16:29:40;0.80;;;0.75;;
30408;SDS011;17207;52.960;5.916;2023-02-28T16:32:06;0.75;;;0.75;;
30408;SDS011;17207;52.960;5.916;2023-02-28T16:34:33;1.90;;;0.88;;
30408;SDS011;17207;52.960;5.916;2023-02-28T16:36:59;0.80;;;0.80;;
30408;SDS011;17207;52.960;5.916;2023-02-28T16:39:25;1.88;;;1.00;;
30408;SDS011;17207;52.960;5.916;2023-02-28T16:41:51;1.80;;;0.80;;
30408;SDS011;17207;52.960;5.916;2023-02-28T16:44:26;2.85;;;1.70;;
30408;SDS011;17207;52.960;5.916;2023-02-28T16:46:52;1.85;;;1.63;;
30408;SDS011;17207;52.960;5.916;2023-02-28T16:49:18;4.38;;;1.80;;
30408;SDS011;17207;52.960;5.916;2023-02-28T16:51:45;2.58;;;1.60;;
30408;SDS011;17207;52.960;5.916;2023-02-28T16:54:11;12.35;;;2.78;;
30408;SDS011;17207;52.960;5.916;2023-02-28T16:56:38;12.15;;;3.15;;
30408;SDS011;17207;52.960;5.916;2023-02-28T16:59:08;9.90;;;3.13;;
30408;SDS011;17207;52.960;5.916;2023-02-28T17:01:34;8.35;;;2.95;;
30408;SDS011;17207;52.960;5.916;2023-02-28T17:04:00;11.27;;;3.33;;
30408;SDS011;17207;52.960;5.916;2023-02-28T17:06:27;9.82;;;2.92;;
30408;SDS011;17207;52.960;5.916;2023-02-28T17:08:54;12.40;;;2.70;;
30408;SDS011;17207;52.960;5.916;2023-02-28T17:11:21;17.13;;;3.25;;
30408;SDS011;17207;52.960;5.916;2023-02-28T17:13:47;17.85;;;2.90;;
30408;SDS011;17207;52.960;5.916;2023-02-28T17:16:34;8.10;;;2.33;;
30408;SDS011;17207;52.960;5.916;2023-02-28T17:19:00;12.77;;;2.35;;
30408;SDS011;17207;52.960;5.916;2023-02-28T17:21:27;15.40;;;2.78;;
30408;SDS011;17207;52.960;5.916;2023-02-28T17:23:53;12.13;;;2.78;;
30408;SDS011;17207;52.960;5.916;2023-02-28T17:26:20;6.65;;;2.35;;
30408;SDS011;17207;52.960;5.916;2023-02-28T17:28:46;27.42;;;2.85;;
30408;SDS011;17207;52.960;5.916;2023-02-28T17:31:12;9.32;;;3.00;;
30408;SDS011;17207;52.960;5.916;2023-02-28T17:33:38;4.63;;;1.95;;
30408;SDS011;17207;52.960;5.916;2023-02-28T17:36:05;15.25;;;2.50;;
30408;SDS011;17207;52.960;5.916;2023-02-28T17:38:31;12.38;;;2.45;;